createdAt,value
2019-04-06T00:01:02.932Z,111.83
2019-04-06T00:03:31.911Z,116.27
2019-04-06T00:06:00.916Z,114.93
2019-04-06T00:08:29.805Z,115.47
2019-04-06T00:10:59.004Z,118.57
2019-04-06T00:13:27.994Z,114.17
2019-04-06T00:15:56.633Z,117.40
2019-04-06T00:18:25.586Z,109.03
2019-04-06T00:20:54.768Z,101.93
2019-04-06T00:23:23.622Z,105.70
2019-04-06T00:25:52.539Z,90.50
2019-04-06T00:28:21.439Z,87.97
2019-04-06T00:31:09.092Z,94.43
2019-04-06T00:33:38.063Z,97.67
2019-04-06T00:36:06.755Z,92.57
2019-04-06T00:38:35.410Z,109.97
2019-04-06T00:41:04.237Z,111.37
2019-04-06T00:43:32.852Z,112.27
2019-04-06T00:46:01.497Z,109.00
2019-04-06T00:48:30.386Z,99.70
2019-04-06T00:50:59.083Z,111.47
2019-04-06T00:53:28.080Z,111.17
2019-04-06T00:55:56.765Z,105.30
2019-04-06T00:58:25.648Z,101.73
2019-04-06T01:00:54.539Z,98.57
2019-04-06T01:03:23.178Z,98.07
2019-04-06T01:05:52.444Z,88.77
2019-04-06T01:08:21.426Z,91.73
2019-04-06T01:10:50.418Z,94.80
2019-04-06T01:13:19.048Z,89.47
2019-04-06T01:15:47.991Z,94.23
2019-04-06T01:18:16.693Z,89.07
2019-04-06T01:20:45.414Z,81.97
2019-04-06T01:23:14.359Z,78.70
2019-04-06T01:25:43.010Z,74.60
2019-04-06T01:28:11.631Z,95.27
2019-04-06T01:30:40.518Z,100.40
2019-04-06T01:33:09.929Z,97.87
2019-04-06T01:35:38.817Z,91.07
2019-04-06T01:38:07.704Z,93.00
2019-04-06T01:40:36.332Z,92.23
2019-04-06T01:43:05.284Z,88.33
2019-04-06T01:45:34.269Z,88.97
2019-04-06T01:48:02.935Z,85.33
2019-04-06T01:50:31.646Z,77.80
2019-04-06T01:53:00.551Z,90.47
2019-04-06T01:55:29.546Z,87.77
2019-04-06T01:57:58.842Z,82.87
2019-04-06T02:00:27.727Z,83.50
2019-04-06T02:02:56.710Z,86.90
2019-04-06T02:05:25.712Z,91.73
2019-04-06T02:07:54.357Z,86.80
2019-04-06T02:10:23.395Z,85.67
2019-04-06T02:12:52.389Z,80.13
2019-04-06T02:15:21.385Z,78.23
2019-04-06T02:17:50.693Z,79.83
2019-04-06T02:20:19.674Z,81.37
2019-04-06T02:22:48.578Z,77.17
2019-04-06T02:25:17.512Z,77.90
2019-04-06T02:27:46.351Z,83.70
2019-04-06T02:30:25.555Z,82.93
2019-04-06T02:33:14.719Z,80.40
2019-04-06T02:36:01.765Z,83.27
2019-04-06T02:38:52.622Z,80.00
2019-04-06T02:41:55.308Z,79.53
2019-04-06T02:44:23.944Z,79.70
2019-04-06T02:46:53.015Z,59.67
2019-04-06T02:49:22.018Z,58.03
2019-04-06T02:51:50.672Z,64.53
2019-04-06T02:54:19.626Z,66.27
2019-04-06T02:56:48.597Z,72.33
2019-04-06T02:59:17.894Z,69.20
2019-04-06T03:01:46.790Z,66.33
2019-04-06T03:04:16.003Z,67.83
2019-04-06T03:06:45.001Z,67.10
2019-04-06T03:09:13.638Z,78.40
2019-04-06T03:11:42.881Z,80.03
2019-04-06T03:14:12.279Z,83.47
2019-04-06T03:16:41.167Z,79.77
2019-04-06T03:19:10.058Z,74.37
2019-04-06T03:21:38.961Z,81.03
2019-04-06T03:24:07.581Z,79.50
2019-04-06T03:26:36.387Z,76.70
2019-04-06T03:29:05.246Z,80.77
2019-04-06T03:31:34.344Z,72.83
2019-04-06T03:34:03.722Z,83.90
2019-04-06T03:36:32.895Z,84.13
2019-04-06T03:39:01.505Z,74.87
2019-04-06T03:41:30.403Z,82.40
2019-04-06T03:43:59.720Z,77.27
2019-04-06T03:46:28.334Z,80.20
2019-04-06T03:48:57.358Z,73.13
2019-04-06T03:51:26.568Z,76.57
2019-04-06T03:53:55.874Z,77.70
2019-04-06T03:56:25.180Z,68.27
2019-04-06T03:58:54.164Z,65.57
2019-04-06T04:01:22.803Z,74.10
2019-04-06T04:03:51.497Z,69.87
2019-04-06T04:06:20.439Z,75.43
2019-04-06T04:08:49.864Z,68.87
2019-04-06T04:11:18.827Z,68.90
2019-04-06T04:13:47.739Z,69.63
2019-04-06T04:16:16.655Z,74.73
2019-04-06T04:18:45.278Z,66.73
2019-04-06T04:21:14.186Z,72.10
2019-04-06T04:23:43.160Z,66.10
2019-04-06T04:26:11.734Z,65.77
2019-04-06T04:28:40.674Z,69.40
2019-04-06T04:31:09.763Z,61.20
2019-04-06T04:33:38.644Z,58.10
2019-04-06T04:36:07.639Z,58.80
2019-04-06T04:38:37.018Z,57.83
2019-04-06T04:41:05.747Z,60.10
2019-04-06T04:43:34.620Z,59.73
2019-04-06T04:46:03.528Z,59.37
2019-04-06T04:48:32.177Z,61.17
2019-04-06T04:51:01.110Z,59.53
2019-04-06T04:53:29.952Z,69.33
2019-04-06T04:55:58.602Z,71.90
2019-04-06T04:58:27.646Z,71.73
2019-04-06T05:00:56.754Z,81.03
2019-04-06T05:03:25.962Z,76.73
2019-04-06T05:05:55.254Z,72.47
2019-04-06T05:08:24.452Z,72.10
2019-04-06T05:10:53.342Z,73.00
2019-04-06T05:13:21.982Z,75.90
2019-04-06T05:16:22.487Z,71.57
2019-04-06T05:18:51.455Z,65.40
2019-04-06T05:21:20.349Z,77.10
2019-04-06T05:23:49.233Z,70.43
2019-04-06T05:26:18.140Z,71.83
2019-04-06T05:28:47.328Z,70.87
2019-04-06T05:31:16.633Z,80.27
2019-04-06T05:33:46.004Z,77.57
2019-04-06T05:36:15.232Z,73.80
2019-04-06T05:38:44.414Z,69.53
2019-04-06T05:41:13.318Z,70.27
2019-04-06T05:43:42.218Z,69.97
2019-04-06T05:46:11.785Z,73.90
2019-04-06T05:48:40.413Z,74.77
2019-04-06T05:51:09.131Z,70.97
2019-04-06T05:53:38.084Z,70.20
2019-04-06T05:56:07.067Z,70.70
2019-04-06T05:58:35.701Z,70.23
2019-04-06T06:01:04.764Z,64.53
2019-04-06T06:03:33.750Z,65.70
2019-04-06T06:06:02.810Z,61.93
2019-04-06T06:08:31.378Z,57.70
2019-04-06T06:11:00.025Z,56.50
2019-04-06T06:13:28.906Z,52.97
2019-04-06T06:15:57.558Z,52.23
2019-04-06T06:18:27.702Z,50.80
2019-04-06T06:20:56.913Z,45.53
2019-04-06T06:23:25.551Z,53.40
2019-04-06T06:25:54.194Z,47.73
2019-04-06T06:28:23.497Z,42.93
2019-04-06T06:30:52.151Z,44.77
2019-04-06T06:33:20.847Z,46.33
2019-04-06T06:35:49.683Z,49.90
2019-04-06T06:38:18.784Z,42.03
2019-04-06T06:40:47.405Z,40.67
2019-04-06T06:43:16.329Z,44.10
2019-04-06T06:45:44.978Z,39.53
2019-04-06T06:48:13.720Z,39.00
2019-04-06T06:50:43.039Z,40.20
2019-04-06T06:53:11.888Z,35.97
2019-04-06T06:55:40.864Z,36.00
2019-04-06T06:58:09.608Z,39.23
2019-04-06T07:00:38.870Z,40.40
2019-04-06T07:03:07.493Z,41.87
2019-04-06T07:05:36.861Z,35.37
2019-04-06T07:08:06.055Z,41.27
2019-04-06T07:10:35.567Z,40.03
2019-04-06T07:13:04.187Z,48.77
2019-04-06T07:15:33.126Z,34.37
2019-04-06T07:18:02.134Z,39.93
2019-04-06T07:20:31.150Z,62.40
2019-04-06T07:22:59.777Z,36.10
2019-04-06T07:25:28.974Z,37.17
2019-04-06T07:27:57.903Z,42.57
2019-04-06T07:30:26.527Z,38.87
2019-04-06T07:32:55.804Z,42.10
2019-04-06T07:35:24.880Z,38.63
2019-04-06T07:37:53.868Z,38.93
2019-04-06T07:40:22.873Z,41.37
2019-04-06T07:42:51.880Z,39.60
2019-04-06T07:45:20.879Z,48.30
2019-04-06T07:47:49.849Z,39.43
2019-04-06T07:50:19.152Z,39.67
2019-04-06T07:52:48.548Z,35.53
2019-04-06T07:55:17.322Z,39.33
2019-04-06T07:57:45.926Z,40.00
2019-04-06T08:00:15.048Z,35.90
2019-04-06T08:02:44.019Z,43.13
2019-04-06T08:05:42.503Z,42.47
2019-04-06T08:08:11.497Z,38.07
2019-04-06T08:10:40.332Z,42.90
2019-04-06T08:13:09.085Z,34.77
2019-04-06T08:15:38.068Z,36.27
2019-04-06T08:18:07.163Z,36.83
2019-04-06T08:20:35.914Z,39.27
2019-04-06T08:23:05.052Z,38.95
2019-04-06T08:25:33.838Z,44.97
2019-04-06T08:28:02.539Z,41.83
2019-04-06T08:30:31.227Z,51.70
2019-04-06T08:33:00.213Z,39.37
2019-04-06T08:35:28.953Z,38.50
2019-04-06T08:37:57.888Z,41.07
2019-04-06T08:40:26.776Z,42.03
2019-04-06T08:42:55.770Z,40.63
2019-04-06T08:45:24.764Z,38.27
2019-04-06T08:47:53.424Z,36.87
2019-04-06T08:50:22.598Z,38.73
2019-04-06T08:52:51.544Z,42.80
2019-04-06T08:55:20.536Z,42.57
2019-04-06T08:57:49.732Z,35.77
2019-04-06T09:00:19.042Z,34.57
2019-04-06T09:02:48.547Z,40.70
2019-04-06T09:05:17.855Z,36.60
2019-04-06T09:07:46.963Z,40.07
2019-04-06T09:10:15.925Z,39.67
2019-04-06T09:12:45.018Z,35.53
2019-04-06T09:15:16.515Z,30.30
2019-04-06T09:17:45.244Z,36.07
2019-04-06T09:20:14.043Z,33.43
2019-04-06T09:23:43.215Z,38.43
2019-04-06T09:26:12.081Z,32.83
2019-04-06T09:28:41.307Z,31.53
2019-04-06T09:31:10.248Z,32.93
2019-04-06T09:33:39.189Z,30.25
2019-04-06T09:36:08.468Z,32.17
2019-04-06T09:38:37.560Z,28.47
2019-04-06T09:41:06.318Z,32.70
2019-04-06T09:43:35.237Z,30.57
2019-04-06T09:46:16.766Z,28.27
2019-04-06T09:49:03.820Z,26.10
2019-04-06T09:51:51.479Z,28.80
2019-04-06T09:54:25.792Z,27.23
2019-04-06T09:58:17.162Z,29.53
2019-04-06T10:01:23.049Z,33.63
2019-04-06T10:04:23.104Z,31.53
2019-04-06T10:07:18.929Z,29.00
2019-04-06T10:10:00.653Z,27.97
2019-04-06T10:13:00.515Z,28.97
2019-04-06T10:15:57.355Z,25.57
2019-04-06T10:18:48.308Z,24.13
2019-04-06T10:21:36.228Z,27.67
2019-04-06T10:24:23.114Z,23.97
2019-04-06T10:27:17.808Z,27.40
2019-04-06T10:30:04.945Z,26.90
2019-04-06T10:32:43.651Z,26.83
2019-04-06T10:35:25.349Z,26.50
2019-04-06T10:38:03.618Z,26.00
2019-04-06T10:44:21.587Z,23.43
2019-04-06T10:47:04.895Z,23.33
2019-04-06T10:50:14.958Z,19.60
2019-04-06T10:53:03.237Z,20.60
2019-04-06T10:55:57.254Z,20.70
2019-04-06T10:58:44.213Z,21.80
2019-04-06T11:01:41.402Z,22.13
2019-04-06T11:04:38.570Z,20.23
2019-04-06T11:07:26.319Z,21.20
2019-04-06T11:10:12.911Z,21.33
2019-04-06T11:12:59.601Z,21.27
2019-04-06T11:16:02.708Z,20.70
2019-04-06T11:18:53.504Z,23.23
2019-04-06T11:21:40.438Z,23.73
2019-04-06T11:24:27.145Z,23.90
2019-04-06T11:27:03.026Z,24.27
2019-04-06T11:29:49.711Z,23.70
2019-04-06T11:32:33.484Z,23.57
2019-04-06T11:35:33.352Z,22.97
2019-04-06T11:38:17.342Z,24.10
2019-04-06T11:40:54.780Z,22.87
2019-04-06T11:43:41.596Z,25.20
2019-04-06T11:46:29.357Z,23.67
2019-04-06T11:49:25.766Z,22.97
2019-04-06T11:52:11.387Z,22.53
2019-04-06T11:54:55.584Z,22.83
2019-04-06T11:57:34.286Z,24.07
2019-04-06T12:00:23.603Z,23.63
2019-04-06T12:02:59.562Z,25.10
2019-04-06T12:05:46.758Z,24.50
2019-04-06T12:08:31.803Z,24.43
2019-04-06T12:11:18.750Z,25.73
2019-04-06T12:13:53.581Z,24.30
2019-04-06T12:16:40.498Z,24.40
2019-04-06T12:19:27.511Z,23.33
2019-04-06T12:22:21.210Z,25.07
2019-04-06T12:25:24.609Z,23.57
2019-04-06T12:28:02.694Z,22.57
2019-04-06T12:30:54.747Z,22.17
2019-04-06T12:33:36.114Z,22.43
2019-04-06T12:36:10.532Z,23.77
2019-04-06T12:38:48.744Z,21.10
2019-04-06T12:41:35.456Z,22.00
2019-04-06T12:44:19.296Z,21.40
2019-04-06T12:47:01.954Z,19.80
2019-04-06T12:49:38.638Z,20.60
2019-04-06T12:52:23.737Z,20.57
2019-04-06T12:55:20.659Z,21.47
2019-04-06T12:57:57.073Z,20.20
2019-04-06T13:00:52.621Z,20.93
2019-04-06T13:03:28.015Z,21.60
2019-04-06T13:06:06.756Z,21.77
2019-04-06T13:08:51.794Z,21.57
2019-04-06T13:11:32.532Z,22.23
2019-04-06T13:14:16.917Z,19.20
2019-04-06T13:16:59.695Z,20.63
2019-04-06T13:19:55.801Z,22.97
2019-04-06T13:22:49.489Z,23.83
2019-04-06T13:25:37.509Z,22.30
2019-04-06T13:28:15.998Z,26.03
2019-04-06T13:31:04.239Z,23.33
2019-04-06T13:33:52.429Z,21.50
2019-04-06T13:36:46.584Z,21.27
2019-04-06T13:39:22.001Z,22.13
2019-04-06T13:42:08.718Z,23.67
2019-04-06T13:44:59.678Z,24.73
2019-04-06T13:47:46.803Z,24.03
2019-04-06T13:50:37.788Z,24.00
2019-04-06T13:53:14.762Z,26.10
2019-04-06T13:56:01.909Z,24.30
2019-04-06T13:58:55.660Z,23.63
2019-04-06T14:01:37.353Z,25.67
2019-04-06T14:04:40.377Z,27.47
2019-04-06T14:07:40.366Z,26.53
2019-04-06T14:10:27.584Z,30.33
2019-04-06T14:13:15.834Z,27.20
2019-04-06T14:16:02.921Z,29.53
2019-04-06T14:18:50.919Z,27.37
2019-04-06T14:21:44.700Z,26.00
2019-04-06T14:24:35.382Z,23.77
2019-04-06T14:27:29.395Z,26.77
2019-04-06T14:30:16.246Z,29.50
2019-04-06T14:33:03.157Z,31.67
2019-04-06T14:35:54.851Z,26.83
2019-04-06T14:39:01.051Z,27.03
2019-04-06T14:41:47.869Z,30.30
2019-04-06T14:44:24.272Z,27.53
2019-04-06T14:47:06.431Z,27.63
2019-04-06T14:49:52.424Z,27.37
2019-04-06T14:52:33.113Z,28.60
2019-04-06T14:55:21.364Z,33.37
2019-04-06T14:58:02.384Z,29.70
2019-04-06T15:00:44.198Z,31.30
2019-04-06T15:03:31.282Z,29.27
2019-04-06T15:06:37.425Z,31.83
2019-04-06T15:09:21.037Z,30.60
2019-04-06T15:12:04.965Z,28.90
2019-04-06T15:14:51.514Z,30.67
2019-04-06T15:17:38.142Z,32.17
2019-04-06T15:20:25.275Z,33.57
2019-04-06T15:23:11.590Z,31.53
2019-04-06T15:25:59.096Z,33.00
2019-04-06T15:28:37.166Z,30.97
2019-04-06T15:31:28.096Z,31.93
2019-04-06T15:34:14.637Z,34.57
2019-04-06T15:37:02.543Z,31.37
2019-04-06T15:39:53.664Z,33.97
2019-04-06T15:42:44.608Z,32.93
2019-04-06T15:45:33.643Z,33.03
2019-04-06T15:48:12.407Z,31.67
2019-04-06T15:51:02.896Z,30.20
2019-04-06T15:54:01.235Z,29.87
2019-04-06T15:56:42.777Z,33.57
2019-04-06T15:59:24.463Z,32.53
2019-04-06T16:02:03.840Z,28.70
2019-04-06T16:04:48.626Z,32.37
2019-04-06T16:07:39.571Z,34.80
2019-04-06T16:10:36.722Z,37.97
2019-04-06T16:13:22.978Z,31.37
2019-04-06T16:16:10.340Z,33.43
2019-04-06T16:18:59.119Z,31.00
2019-04-06T16:21:42.331Z,35.67
2019-04-06T16:24:48.732Z,34.10
2019-04-06T16:27:29.165Z,33.70
2019-04-06T16:30:29.034Z,34.00
2019-04-06T16:33:10.203Z,34.33
2019-04-06T16:35:56.879Z,35.43
2019-04-06T16:38:35.601Z,34.60
2019-04-06T16:41:16.755Z,34.57
2019-04-06T16:43:57.902Z,36.00
2019-04-06T16:46:51.557Z,31.90
2019-04-06T16:49:36.862Z,34.50
2019-04-06T16:52:26.963Z,32.30
2019-04-06T16:55:11.014Z,34.33
2019-04-06T16:57:55.824Z,32.83
2019-04-06T17:00:36.782Z,31.27
2019-04-06T17:03:14.689Z,34.10
2019-04-06T17:06:01.496Z,36.50
2019-04-06T17:08:49.016Z,34.87
2019-04-06T17:11:35.947Z,34.50
2019-04-06T17:14:15.831Z,37.43
2019-04-06T17:17:03.617Z,31.87
2019-04-06T17:19:49.546Z,36.70
2019-04-06T17:22:33.839Z,29.07
2019-04-06T17:25:39.633Z,36.40
2019-04-06T17:28:35.703Z,30.50
2019-04-06T17:31:21.152Z,35.07
2019-04-06T17:34:08.533Z,30.37
2019-04-06T17:36:47.769Z,31.53
2019-04-06T17:39:34.930Z,33.30
2019-04-06T17:42:13.099Z,32.30
2019-04-06T17:45:07.342Z,35.07
2019-04-06T17:47:45.220Z,32.83
2019-04-06T17:50:28.124Z,31.17
2019-04-06T17:53:07.338Z,33.37
2019-04-06T17:55:54.039Z,29.13
2019-04-06T17:58:46.344Z,30.33
2019-04-06T18:01:33.033Z,30.00
2019-04-06T18:04:28.137Z,37.50
2019-04-06T18:07:13.092Z,33.13
2019-04-06T18:09:49.196Z,32.17
2019-04-06T18:12:28.754Z,33.43
2019-04-06T18:14:57.481Z,35.00
2019-04-06T18:17:26.569Z,31.90
2019-04-06T18:19:56.389Z,33.07
2019-04-06T18:22:25.137Z,28.50
2019-04-06T18:24:54.377Z,31.83
2019-04-06T18:27:23.277Z,31.70
2019-04-06T18:29:52.263Z,31.47
2019-04-06T18:32:39.996Z,32.50
2019-04-06T18:35:10.076Z,31.60
2019-04-06T18:37:46.089Z,32.60
2019-04-06T18:40:24.885Z,29.90
2019-04-06T18:42:54.418Z,29.70
2019-04-06T18:45:23.324Z,29.17
2019-04-06T18:47:52.288Z,31.77
2019-04-06T18:50:21.071Z,31.43
2019-04-06T18:52:49.980Z,27.80
2019-04-06T18:55:18.860Z,34.23
2019-04-06T18:57:47.853Z,27.83
2019-04-06T19:00:17.109Z,30.83
2019-04-06T19:02:46.297Z,36.30
2019-04-06T19:05:15.220Z,28.83
2019-04-06T19:07:44.212Z,30.43
2019-04-06T19:10:13.352Z,28.53
2019-04-06T19:12:42.850Z,28.23
2019-04-06T19:15:11.610Z,31.07
2019-04-06T19:17:40.269Z,26.47
2019-04-06T19:20:09.259Z,33.47
2019-04-06T19:22:37.892Z,30.67
2019-04-06T19:25:07.460Z,31.57
2019-04-06T19:27:36.389Z,26.30
2019-04-06T19:30:07.709Z,30.60
2019-04-06T19:32:36.910Z,26.67
2019-04-06T19:35:07.712Z,25.47
2019-04-06T19:37:36.602Z,31.07
2019-04-06T19:40:07.241Z,28.23
2019-04-06T19:42:36.418Z,25.33
2019-04-06T19:45:06.659Z,26.90
2019-04-06T19:47:35.815Z,29.43
2019-04-06T19:50:06.575Z,26.77
2019-04-06T19:52:35.914Z,27.53
2019-04-06T19:55:05.628Z,31.43
2019-04-06T19:57:35.151Z,27.40
2019-04-06T20:00:05.014Z,29.33
2019-04-06T20:02:33.814Z,29.43
2019-04-06T20:05:02.862Z,28.77
2019-04-06T20:07:31.668Z,25.07
2019-04-06T20:10:00.817Z,30.10
2019-04-06T20:12:29.824Z,26.50
2019-04-06T20:14:58.697Z,26.30
2019-04-06T20:17:27.686Z,32.43
2019-04-06T20:19:56.722Z,31.23
2019-04-06T20:22:25.380Z,29.90
2019-04-06T20:24:54.605Z,31.60
2019-04-06T20:27:23.494Z,30.23
2019-04-06T20:29:52.349Z,32.30
2019-04-06T20:32:21.345Z,32.43
2019-04-06T20:34:50.465Z,32.43
2019-04-06T20:37:19.208Z,27.43
2019-04-06T20:39:47.890Z,27.57
2019-04-06T20:42:16.660Z,27.30
2019-04-06T20:44:45.316Z,36.23
2019-04-06T20:47:14.824Z,30.50
2019-04-06T20:49:44.065Z,32.83
2019-04-06T20:52:13.048Z,31.50
2019-04-06T20:54:41.939Z,26.27
2019-04-06T20:57:10.945Z,27.77
2019-04-06T20:59:39.578Z,35.23
2019-04-06T21:02:08.293Z,29.50
2019-04-06T21:04:37.607Z,31.70
2019-04-06T21:07:06.721Z,37.93
2019-04-06T21:09:36.071Z,34.70
2019-04-06T21:12:05.717Z,35.37
2019-04-06T21:14:35.143Z,33.67
2019-04-06T21:17:04.223Z,29.43
2019-04-06T21:19:33.998Z,31.70
2019-04-06T21:22:02.656Z,32.83
2019-04-06T21:24:31.917Z,28.17
2019-04-06T21:27:00.557Z,32.00
2019-04-06T21:29:29.659Z,33.87
2019-04-06T21:31:59.419Z,32.87
2019-04-06T21:34:29.305Z,32.63
2019-04-06T21:36:58.493Z,36.27
2019-04-06T21:39:27.950Z,31.70
2019-04-06T21:41:58.087Z,30.07
2019-04-06T21:44:27.670Z,33.33
2019-04-06T21:46:57.413Z,34.03
2019-04-06T21:49:26.699Z,32.30
2019-04-06T21:51:55.415Z,31.83
2019-04-06T21:54:24.101Z,32.50
2019-04-06T21:56:53.476Z,31.80
2019-04-06T21:59:22.538Z,31.80
2019-04-06T22:01:51.383Z,32.13
2019-04-06T22:04:26.025Z,30.70
2019-04-06T22:06:50.745Z,32.43
2019-04-06T22:09:19.403Z,29.37
2019-04-06T22:11:48.307Z,33.80
2019-04-06T22:14:17.718Z,32.20
2019-04-06T22:16:46.352Z,33.97
2019-04-06T22:19:15.003Z,30.77
2019-04-06T22:21:44.045Z,33.23
2019-04-06T22:24:12.619Z,28.93
2019-04-06T22:26:41.303Z,34.40
2019-04-06T22:29:09.934Z,33.27
2019-04-06T22:31:38.947Z,28.90
2019-04-06T22:34:08.141Z,33.00
2019-04-06T22:36:37.421Z,35.13
2019-04-06T22:39:07.357Z,33.90
2019-04-06T22:41:36.447Z,35.73
2019-04-06T22:44:05.827Z,34.73
2019-04-06T22:46:35.336Z,32.63
2019-04-06T22:49:03.956Z,35.23
2019-04-06T22:51:32.998Z,30.50
2019-04-06T22:54:02.523Z,33.43
2019-04-06T22:56:31.849Z,34.27
2019-04-06T22:59:00.673Z,33.80
2019-04-06T23:01:31.185Z,32.63
2019-04-06T23:04:21.670Z,32.07
2019-04-06T23:07:00.689Z,36.17
2019-04-06T23:09:30.368Z,34.10
2019-04-06T23:12:00.689Z,33.97
2019-04-06T23:14:29.619Z,35.03
2019-04-06T23:16:58.668Z,39.80
2019-04-06T23:19:28.137Z,38.63
2019-04-06T23:21:56.834Z,36.83
2019-04-06T23:24:25.976Z,36.83
2019-04-06T23:26:54.896Z,34.43
2019-04-06T23:29:23.580Z,34.30
2019-04-06T23:31:53.122Z,33.60
2019-04-06T23:34:21.960Z,36.63
2019-04-06T23:36:51.178Z,35.20
2019-04-06T23:39:20.170Z,37.40
2019-04-06T23:41:48.805Z,38.00
2019-04-06T23:44:18.478Z,41.03
2019-04-06T23:46:47.210Z,40.53
2019-04-06T23:49:16.837Z,40.03
2019-04-06T23:51:45.579Z,46.47
2019-04-06T23:54:14.852Z,44.57
2019-04-06T23:56:43.468Z,47.30
2019-04-06T23:59:12.578Z,44.87
